createdAt,value
2019-01-31T00:02:27.234Z,75.55
2019-01-31T00:05:45.236Z,75.64
2019-01-31T00:09:29.815Z,76.19
2019-01-31T00:12:54.040Z,77.15
2019-01-31T00:16:09.216Z,77.46
2019-01-31T00:19:26.170Z,77.38
2019-01-31T00:23:24.409Z,77.52
2019-01-31T00:27:12.642Z,77.50
2019-01-31T00:30:53.221Z,77.75
2019-01-31T00:34:20.080Z,77.98
2019-01-31T00:37:35.044Z,78.29
2019-01-31T00:40:58.346Z,78.40
2019-01-31T00:44:16.170Z,78.66
2019-01-31T00:47:37.789Z,78.74
2019-01-31T00:50:37.941Z,79.04
2019-01-31T00:53:59.504Z,79.07
2019-01-31T00:56:50.483Z,78.96
2019-01-31T01:00:24.428Z,78.83
2019-01-31T01:03:31.852Z,79.01
2019-01-31T01:06:58.879Z,78.42
2019-01-31T01:10:02.178Z,78.54
2019-01-31T01:13:44.433Z,77.92
2019-01-31T01:16:40.829Z,77.95
2019-01-31T01:20:02.309Z,78.31
2019-01-31T01:23:35.542Z,77.83
2019-01-31T01:26:52.471Z,76.02
2019-01-31T01:29:40.956Z,75.51
2019-01-31T01:32:49.046Z,75.30
2019-01-31T01:36:13.009Z,75.68
2019-01-31T01:39:56.655Z,74.93
2019-01-31T01:43:24.340Z,74.80
2019-01-31T01:46:45.841Z,74.64
2019-01-31T01:49:59.779Z,74.88
2019-01-31T01:53:15.547Z,74.81
2019-01-31T01:56:30.672Z,74.28
2019-01-31T02:00:07.805Z,74.52
2019-01-31T02:03:42.137Z,74.37
2019-01-31T02:06:38.694Z,74.55
2019-01-31T02:09:59.024Z,75.12
2019-01-31T02:13:34.748Z,75.34
2019-01-31T02:16:51.567Z,75.76
2019-01-31T02:20:20.409Z,76.09
2019-01-31T02:23:14.352Z,75.93
2019-01-31T02:27:15.682Z,75.70
2019-01-31T02:30:39.350Z,75.88
2019-01-31T02:33:41.911Z,75.83
2019-01-31T02:36:54.036Z,75.99
2019-01-31T02:40:28.801Z,75.75
2019-01-31T02:43:18.168Z,75.82
2019-01-31T02:46:29.894Z,75.36
2019-01-31T02:50:14.094Z,75.71
2019-01-31T02:53:43.743Z,75.60
2019-01-31T02:57:24.755Z,76.29
2019-01-31T03:00:37.680Z,76.14
2019-01-31T03:03:53.725Z,76.45
2019-01-31T03:07:33.624Z,76.71
2019-01-31T03:11:07.045Z,77.25
2019-01-31T03:14:10.165Z,77.45
2019-01-31T03:17:14.886Z,77.79
2019-01-31T03:20:39.510Z,77.92
2019-01-31T03:24:10.568Z,78.23
2019-01-31T03:27:22.550Z,78.44
2019-01-31T03:30:41.300Z,78.87
2019-01-31T03:33:52.711Z,79.14
2019-01-31T03:37:28.687Z,79.32
2019-01-31T03:41:01.962Z,79.42
2019-01-31T03:44:50.220Z,79.40
2019-01-31T03:48:32.707Z,79.60
2019-01-31T03:52:02.279Z,79.67
2019-01-31T03:55:42.790Z,79.88
2019-01-31T03:58:52.271Z,79.02
2019-01-31T04:02:01.575Z,79.08
2019-01-31T04:05:16.191Z,78.57
2019-01-31T04:07:47.656Z,78.65
2019-01-31T04:10:19.406Z,78.64
2019-01-31T04:12:50.890Z,79.13
2019-01-31T04:15:22.186Z,79.37
2019-01-31T04:17:54.120Z,79.78
2019-01-31T04:20:25.677Z,79.57
2019-01-31T04:22:57.285Z,79.69
2019-01-31T04:25:29.009Z,79.95
2019-01-31T04:28:00.433Z,80.28
2019-01-31T04:30:32.106Z,80.36
2019-01-31T04:33:03.675Z,80.46
2019-01-31T04:35:35.233Z,80.83
2019-01-31T04:38:06.548Z,81.07
2019-01-31T04:40:38.182Z,81.05
2019-01-31T04:43:09.931Z,80.91
2019-01-31T04:45:41.577Z,80.69
2019-01-31T04:48:13.206Z,80.48
2019-01-31T04:50:45.663Z,80.28
2019-01-31T04:53:17.714Z,80.35
2019-01-31T04:55:49.707Z,79.89
2019-01-31T04:58:21.288Z,79.90
2019-01-31T05:00:52.891Z,79.54
2019-01-31T05:03:24.817Z,79.72
2019-01-31T05:05:56.595Z,79.14
2019-01-31T05:08:30.877Z,79.06
2019-01-31T05:11:01.701Z,78.98
2019-01-31T05:13:33.065Z,78.55
2019-01-31T05:16:04.702Z,78.52
2019-01-31T05:18:37.486Z,78.63
2019-01-31T05:21:09.806Z,78.60
2019-01-31T05:23:41.677Z,78.12
2019-01-31T05:26:13.953Z,78.04
2019-01-31T05:28:46.057Z,78.20
2019-01-31T05:31:17.446Z,78.05
2019-01-31T05:33:49.899Z,77.52
2019-01-31T05:36:21.323Z,77.40
2019-01-31T05:38:52.998Z,77.19
2019-01-31T05:41:24.632Z,77.17
2019-01-31T05:43:55.951Z,77.27
2019-01-31T05:46:27.559Z,77.36
2019-01-31T05:48:59.327Z,77.21
2019-01-31T05:51:30.706Z,77.22
2019-01-31T05:54:02.036Z,77.38
2019-01-31T05:56:33.294Z,77.29
2019-01-31T05:59:05.834Z,77.09
2019-01-31T06:01:37.368Z,77.11
2019-01-31T06:04:08.684Z,77.48
2019-01-31T06:06:40.379Z,77.48
2019-01-31T06:09:12.523Z,77.29
2019-01-31T06:11:43.876Z,77.30
2019-01-31T06:14:15.334Z,77.12
2019-01-31T06:16:46.944Z,77.04
2019-01-31T06:19:18.299Z,77.32
2019-01-31T06:21:50.082Z,77.54
2019-01-31T06:24:21.395Z,77.55
2019-01-31T06:26:52.847Z,77.45
2019-01-31T06:29:24.474Z,77.53
2019-01-31T06:31:56.110Z,77.63
2019-01-31T06:34:27.444Z,77.36
2019-01-31T06:36:58.756Z,77.28
2019-01-31T06:39:30.724Z,77.37
2019-01-31T06:42:02.551Z,77.38
2019-01-31T06:44:33.883Z,77.46
2019-01-31T06:47:05.547Z,77.59
2019-01-31T06:49:37.598Z,77.79
2019-01-31T06:52:09.252Z,77.86
2019-01-31T06:54:40.639Z,77.85
2019-01-31T06:57:11.912Z,77.67
2019-01-31T06:59:43.269Z,77.57
2019-01-31T07:02:14.802Z,77.55
2019-01-31T07:04:46.269Z,77.51
2019-01-31T07:07:19.242Z,77.61
2019-01-31T07:09:50.682Z,77.58
2019-01-31T07:12:22.413Z,77.66
2019-01-31T07:14:53.789Z,77.90
2019-01-31T07:17:25.490Z,77.66
2019-01-31T07:19:56.806Z,77.84
2019-01-31T07:22:28.686Z,78.00
2019-01-31T07:25:00.413Z,78.03
2019-01-31T07:27:32.482Z,78.34
2019-01-31T07:30:05.524Z,78.26
2019-01-31T07:32:37.224Z,78.27
2019-01-31T07:35:10.831Z,78.44
2019-01-31T07:37:42.243Z,78.38
2019-01-31T07:40:15.935Z,78.24
2019-01-31T07:42:47.681Z,78.21
2019-01-31T07:45:30.947Z,78.31
2019-01-31T07:48:02.706Z,78.35
2019-01-31T07:50:34.015Z,78.15
2019-01-31T07:53:05.500Z,78.22
2019-01-31T07:55:36.820Z,78.41
2019-01-31T07:58:08.456Z,78.17
2019-01-31T08:00:39.827Z,77.81
2019-01-31T08:03:11.131Z,77.73
2019-01-31T08:05:42.413Z,77.84
2019-01-31T08:08:13.745Z,77.67
2019-01-31T08:10:45.694Z,77.65
2019-01-31T08:13:17.098Z,77.96
2019-01-31T08:15:49.458Z,78.33
2019-01-31T08:18:21.365Z,78.38
2019-01-31T08:20:52.818Z,78.41
2019-01-31T08:23:24.249Z,78.38
2019-01-31T08:25:55.914Z,78.37
2019-01-31T08:28:27.319Z,77.91
2019-01-31T08:30:59.081Z,77.62
2019-01-31T08:33:30.367Z,77.76
2019-01-31T08:36:01.947Z,77.32
2019-01-31T08:38:36.594Z,77.01
2019-01-31T08:41:06.568Z,77.04
2019-01-31T08:43:38.215Z,76.70
2019-01-31T08:46:09.683Z,76.41
2019-01-31T08:48:41.782Z,76.33
2019-01-31T08:51:13.136Z,76.49
2019-01-31T08:53:44.513Z,76.45
2019-01-31T08:56:15.813Z,76.32
2019-01-31T08:58:47.782Z,76.07
2019-01-31T09:01:19.213Z,76.56
2019-01-31T09:03:51.201Z,76.88
2019-01-31T09:06:22.535Z,76.14
2019-01-31T09:08:53.931Z,76.33
2019-01-31T09:11:25.202Z,75.82
2019-01-31T09:13:56.467Z,77.07
2019-01-31T09:16:28.349Z,76.51
2019-01-31T09:19:00.269Z,76.82
2019-01-31T09:22:19.359Z,74.89
2019-01-31T09:25:26.985Z,75.52
2019-01-31T09:28:54.161Z,74.58
2019-01-31T09:32:37.979Z,75.95
2019-01-31T09:35:44.104Z,75.06
2019-01-31T09:39:20.456Z,74.01
2019-01-31T09:42:28.291Z,66.83
2019-01-31T09:45:31.885Z,65.02
2019-01-31T09:48:34.408Z,68.97
2019-01-31T09:52:05.731Z,64.21
2019-01-31T09:55:35.821Z,65.69
2019-01-31T09:58:55.868Z,59.47
2019-01-31T10:02:21.931Z,63.15
2019-01-31T10:06:00.786Z,57.15
2019-01-31T10:09:27.807Z,57.58
2019-01-31T10:12:38.411Z,56.07
2019-01-31T10:15:55.181Z,56.55
2019-01-31T10:19:17.599Z,56.33
2019-01-31T10:22:41.444Z,56.59
2019-01-31T10:25:52.998Z,55.64
2019-01-31T10:29:25.322Z,56.64
2019-01-31T10:33:02.283Z,54.00
2019-01-31T10:36:51.543Z,55.36
2019-01-31T10:40:22.178Z,52.84
2019-01-31T10:43:56.469Z,54.33
2019-01-31T10:47:14.225Z,54.44
2019-01-31T10:53:29.389Z,57.22
2019-01-31T10:56:46.935Z,53.58
2019-01-31T11:00:33.362Z,52.04
2019-01-31T11:03:37.165Z,55.93
2019-01-31T11:07:11.752Z,51.41
2019-01-31T11:10:32.605Z,51.77
2019-01-31T11:14:33.640Z,52.57
2019-01-31T11:18:03.933Z,53.29
2019-01-31T11:21:44.214Z,53.70
2019-01-31T11:25:11.605Z,53.94
2019-01-31T11:28:15.017Z,53.82
2019-01-31T11:31:27.985Z,54.33
2019-01-31T11:34:48.824Z,53.47
2019-01-31T11:38:31.890Z,53.04
2019-01-31T11:41:54.921Z,52.80
2019-01-31T11:45:21.072Z,52.81
2019-01-31T11:48:39.132Z,52.97
2019-01-31T11:52:26.962Z,52.62
2019-01-31T11:55:56.332Z,52.78
2019-01-31T11:59:01.527Z,51.08
2019-01-31T12:01:33.297Z,53.02
2019-01-31T12:04:17.369Z,51.41
2019-01-31T12:06:49.273Z,52.10
2019-01-31T12:09:22.397Z,49.99
2019-01-31T12:11:54.015Z,50.37
2019-01-31T12:14:25.298Z,49.39
2019-01-31T12:16:56.921Z,50.50
2019-01-31T12:19:28.782Z,50.62
2019-01-31T12:22:00.085Z,51.72
2019-01-31T12:24:34.183Z,51.24
2019-01-31T12:27:05.632Z,51.36
2019-01-31T12:29:37.639Z,51.97
2019-01-31T12:32:08.940Z,51.88
2019-01-31T12:34:43.090Z,52.26
2019-01-31T12:37:13.405Z,53.30
2019-01-31T12:39:44.697Z,52.70
2019-01-31T12:42:16.008Z,53.43
2019-01-31T12:44:47.578Z,53.52
2019-01-31T12:47:18.969Z,55.09
2019-01-31T12:49:50.336Z,55.05
2019-01-31T12:52:21.638Z,53.79
2019-01-31T12:54:53.141Z,54.31
2019-01-31T12:57:24.408Z,55.10
2019-01-31T12:59:56.252Z,55.14
2019-01-31T13:02:27.628Z,54.26
2019-01-31T13:04:59.231Z,54.42
2019-01-31T13:07:31.119Z,55.03
2019-01-31T13:10:02.467Z,54.88
2019-01-31T13:12:34.103Z,55.57
2019-01-31T13:15:05.986Z,54.80
2019-01-31T13:17:38.049Z,56.27
2019-01-31T13:20:15.348Z,54.47
2019-01-31T13:22:47.142Z,55.12
2019-01-31T13:25:19.261Z,55.09
2019-01-31T13:27:50.617Z,55.67
2019-01-31T13:30:22.783Z,56.40
2019-01-31T13:32:55.540Z,56.20
2019-01-31T13:35:26.822Z,56.15
2019-01-31T13:37:58.046Z,57.04
2019-01-31T13:40:29.674Z,57.66
2019-01-31T13:43:02.451Z,57.66
2019-01-31T13:45:36.853Z,57.11
2019-01-31T13:48:18.273Z,57.10
2019-01-31T13:50:50.057Z,58.40
2019-01-31T13:53:21.328Z,57.27
2019-01-31T13:55:53.373Z,56.46
2019-01-31T13:58:25.049Z,55.34
2019-01-31T14:00:56.983Z,53.95
2019-01-31T14:03:29.597Z,54.63
2019-01-31T14:06:02.148Z,53.97
2019-01-31T14:08:34.885Z,54.08
2019-01-31T14:11:06.365Z,53.98
2019-01-31T14:13:37.631Z,54.72
2019-01-31T14:16:08.912Z,55.36
2019-01-31T14:18:41.284Z,54.67
2019-01-31T14:21:12.807Z,55.50
2019-01-31T14:23:44.351Z,54.63
2019-01-31T14:26:16.334Z,54.77
2019-01-31T14:28:48.055Z,54.97
2019-01-31T14:31:19.406Z,55.43
2019-01-31T14:33:51.019Z,56.05
2019-01-31T14:36:22.660Z,55.49
2019-01-31T14:38:53.999Z,56.41
2019-01-31T14:41:25.656Z,56.46
2019-01-31T14:43:57.289Z,56.26
2019-01-31T14:46:28.740Z,56.89
2019-01-31T14:49:02.300Z,57.10
2019-01-31T14:51:32.942Z,56.25
2019-01-31T14:54:07.093Z,56.38
2019-01-31T14:56:38.471Z,56.28
2019-01-31T14:59:09.691Z,57.45
2019-01-31T15:01:40.962Z,58.23
2019-01-31T15:04:12.334Z,59.21
2019-01-31T15:06:44.106Z,56.58
2019-01-31T15:09:17.459Z,56.85
2019-01-31T15:11:51.601Z,58.14
2019-01-31T15:14:31.488Z,59.85
2019-01-31T15:16:55.871Z,61.09
2019-01-31T15:19:27.465Z,61.99
2019-01-31T15:21:58.807Z,61.59
2019-01-31T15:24:30.267Z,61.43
2019-01-31T15:27:04.596Z,62.59
2019-01-31T15:29:35.865Z,62.54
2019-01-31T15:32:07.321Z,63.29
2019-01-31T15:34:38.885Z,64.00
2019-01-31T15:37:10.099Z,64.87
2019-01-31T15:39:41.362Z,65.90
2019-01-31T15:42:12.786Z,66.88
2019-01-31T15:44:44.326Z,67.26
2019-01-31T15:47:15.628Z,67.77
2019-01-31T15:49:46.951Z,68.45
2019-01-31T15:52:18.552Z,68.46
2019-01-31T15:54:49.779Z,68.95
2019-01-31T15:57:21.271Z,69.24
2019-01-31T15:59:52.860Z,69.56
2019-01-31T16:02:24.092Z,69.58
2019-01-31T16:04:57.041Z,70.02
2019-01-31T16:07:28.631Z,69.49
2019-01-31T16:09:59.977Z,69.68
2019-01-31T16:12:31.616Z,69.42
2019-01-31T16:15:03.084Z,69.46
2019-01-31T16:17:34.658Z,69.51
2019-01-31T16:20:07.108Z,69.83
2019-01-31T16:22:38.466Z,70.39
2019-01-31T16:25:09.705Z,70.48
2019-01-31T16:27:41.158Z,70.54
2019-01-31T16:30:14.705Z,70.66
2019-01-31T16:32:46.182Z,70.95
2019-01-31T16:35:17.636Z,71.23
2019-01-31T16:37:49.596Z,71.30
2019-01-31T16:40:21.143Z,71.45
2019-01-31T16:42:52.445Z,71.29
2019-01-31T16:45:24.122Z,71.29
2019-01-31T16:47:56.788Z,71.46
2019-01-31T16:50:28.856Z,71.79
2019-01-31T16:53:00.111Z,72.12
2019-01-31T16:55:31.443Z,72.51
2019-01-31T16:58:03.011Z,72.64
2019-01-31T17:00:34.405Z,72.96
2019-01-31T17:03:09.338Z,72.93
2019-01-31T17:05:40.674Z,72.92
2019-01-31T17:08:15.080Z,73.21
2019-01-31T17:10:47.085Z,73.25
2019-01-31T17:13:18.438Z,73.37
2019-01-31T17:15:50.198Z,73.13
2019-01-31T17:18:21.471Z,73.50
2019-01-31T17:20:53.171Z,73.57
2019-01-31T17:23:27.201Z,73.80
2019-01-31T17:25:58.622Z,74.14
2019-01-31T17:28:30.633Z,74.27
2019-01-31T17:31:02.187Z,74.51
2019-01-31T17:33:34.978Z,74.69
2019-01-31T17:36:07.328Z,74.93
2019-01-31T17:38:38.824Z,75.12
2019-01-31T17:41:10.222Z,75.21
2019-01-31T17:43:41.951Z,75.29
2019-01-31T17:46:15.658Z,75.24
2019-01-31T17:48:47.570Z,75.53
2019-01-31T17:51:19.189Z,75.70
2019-01-31T17:53:50.852Z,75.88
2019-01-31T17:56:24.222Z,76.03
2019-01-31T17:58:55.947Z,75.99
2019-01-31T18:01:27.254Z,76.23
2019-01-31T18:03:58.843Z,76.11
2019-01-31T18:06:30.167Z,76.52
2019-01-31T18:09:02.383Z,76.35
2019-01-31T18:11:33.783Z,76.57
2019-01-31T18:14:05.832Z,76.52
2019-01-31T18:16:38.854Z,76.73
2019-01-31T18:19:12.853Z,76.86
2019-01-31T18:21:44.140Z,76.70
2019-01-31T18:24:19.364Z,76.93
2019-01-31T18:26:50.990Z,76.89
2019-01-31T18:29:22.629Z,76.90
2019-01-31T18:31:54.127Z,76.83
2019-01-31T18:34:25.846Z,76.65
2019-01-31T18:37:00.107Z,76.84
2019-01-31T18:39:31.448Z,76.97
2019-01-31T18:42:02.683Z,77.06
2019-01-31T18:44:34.091Z,77.16
2019-01-31T18:47:05.663Z,77.32
2019-01-31T18:49:36.917Z,77.38
2019-01-31T18:52:08.962Z,77.34
2019-01-31T18:54:43.177Z,77.83
2019-01-31T18:57:14.835Z,78.02
2019-01-31T18:59:47.185Z,78.77
2019-01-31T19:02:20.494Z,79.04
2019-01-31T19:04:54.357Z,78.83
2019-01-31T19:07:26.329Z,78.73
2019-01-31T19:10:00.334Z,79.08
2019-01-31T19:12:31.555Z,79.03
2019-01-31T19:15:02.911Z,79.29
2019-01-31T19:17:34.273Z,79.32
2019-01-31T19:20:09.998Z,79.36
2019-01-31T19:22:41.352Z,79.17
2019-01-31T19:25:13.287Z,79.27
2019-01-31T19:27:44.632Z,79.56
2019-01-31T19:30:23.293Z,79.64
2019-01-31T19:32:54.871Z,79.55
2019-01-31T19:35:26.561Z,79.55
2019-01-31T19:38:02.137Z,79.81
2019-01-31T19:40:34.696Z,79.98
2019-01-31T19:43:07.463Z,79.75
2019-01-31T19:45:48.088Z,79.76
2019-01-31T19:48:19.802Z,79.69
2019-01-31T19:50:51.135Z,79.50
2019-01-31T19:53:22.485Z,79.53
2019-01-31T19:55:53.749Z,79.61
2019-01-31T19:58:25.022Z,79.62
2019-01-31T20:00:57.266Z,79.51
2019-01-31T20:03:28.554Z,79.35
2019-01-31T20:06:00.315Z,79.72
2019-01-31T20:08:32.230Z,79.87
2019-01-31T20:11:03.523Z,80.09
2019-01-31T20:13:34.760Z,80.25
2019-01-31T20:16:06.243Z,80.46
2019-01-31T20:18:39.513Z,80.80
2019-01-31T20:21:11.445Z,80.86
2019-01-31T20:23:42.910Z,80.57
2019-01-31T20:26:14.521Z,80.38
2019-01-31T20:28:48.944Z,80.33
2019-01-31T20:31:20.257Z,80.75
2019-01-31T20:33:51.974Z,81.11
2019-01-31T20:36:23.226Z,81.13
2019-01-31T20:38:54.539Z,80.89
2019-01-31T20:41:27.541Z,80.80
2019-01-31T20:43:59.167Z,81.04
2019-01-31T20:46:39.684Z,81.07
2019-01-31T20:49:03.812Z,80.93
2019-01-31T20:51:38.809Z,80.87
2019-01-31T20:54:10.213Z,81.09
2019-01-31T20:56:42.548Z,80.83
2019-01-31T20:59:14.115Z,80.74
2019-01-31T21:01:45.505Z,81.05
2019-01-31T21:04:16.861Z,80.93
2019-01-31T21:06:48.112Z,80.86
2019-01-31T21:09:19.394Z,80.86
2019-01-31T21:11:50.742Z,81.00
2019-01-31T21:14:21.982Z,80.95
2019-01-31T21:16:53.292Z,81.03
2019-01-31T21:19:24.894Z,81.12
2019-01-31T21:21:56.190Z,81.13
2019-01-31T21:24:27.767Z,80.92
2019-01-31T21:26:59.092Z,81.24
2019-01-31T21:29:30.426Z,81.24
2019-01-31T21:32:02.395Z,81.12
2019-01-31T21:34:37.418Z,81.22
2019-01-31T21:37:08.696Z,81.07
2019-01-31T21:39:40.318Z,81.33
2019-01-31T21:42:11.575Z,81.37
2019-01-31T21:44:42.839Z,81.64
2019-01-31T21:47:15.069Z,81.46
2019-01-31T21:49:46.462Z,81.71
2019-01-31T21:52:17.804Z,81.64
2019-01-31T21:54:49.492Z,81.73
2019-01-31T21:57:21.517Z,81.73
2019-01-31T21:59:52.788Z,81.81
2019-01-31T22:02:24.489Z,81.74
2019-01-31T22:04:55.925Z,81.82
2019-01-31T22:07:27.231Z,81.76
2019-01-31T22:09:58.892Z,81.89
2019-01-31T22:12:31.300Z,81.97
2019-01-31T22:15:02.680Z,81.97
2019-01-31T22:17:34.488Z,81.91
2019-01-31T22:20:06.111Z,81.88
2019-01-31T22:22:37.795Z,81.89
2019-01-31T22:25:11.392Z,81.98
2019-01-31T22:27:42.655Z,81.95
2019-01-31T22:30:27.459Z,81.98
2019-01-31T22:32:59.049Z,82.07
2019-01-31T22:35:30.447Z,81.93
2019-01-31T22:38:02.210Z,82.20
2019-01-31T22:40:33.614Z,82.31
2019-01-31T22:43:05.188Z,82.24
2019-01-31T22:45:36.534Z,82.20
2019-01-31T22:48:09.378Z,82.38
2019-01-31T22:50:41.104Z,82.28
2019-01-31T22:53:12.489Z,82.36
2019-01-31T22:55:44.139Z,82.24
2019-01-31T22:58:15.969Z,82.38
2019-01-31T23:01:41.806Z,82.29
2019-01-31T23:04:16.414Z,82.37
2019-01-31T23:06:47.880Z,82.31
2019-01-31T23:09:19.313Z,82.32
2019-01-31T23:11:52.114Z,82.36
2019-01-31T23:14:23.530Z,82.23
2019-01-31T23:16:55.212Z,82.18
2019-01-31T23:19:27.328Z,82.45
2019-01-31T23:21:58.880Z,82.52
2019-01-31T23:24:30.199Z,82.54
2019-01-31T23:27:01.808Z,82.42
2019-01-31T23:29:33.880Z,82.33
2019-01-31T23:32:07.542Z,82.33
2019-01-31T23:34:39.697Z,82.12
2019-01-31T23:37:11.098Z,82.19
2019-01-31T23:39:42.841Z,82.19
2019-01-31T23:42:14.757Z,82.13
2019-01-31T23:44:46.195Z,82.22
2019-01-31T23:47:17.612Z,82.25
2019-01-31T23:49:49.898Z,82.27
2019-01-31T23:52:21.260Z,82.28
2019-01-31T23:54:52.948Z,82.35
2019-01-31T23:57:24.454Z,82.29
2019-01-31T23:59:56.059Z,82.29
